createdAt,value
2022-12-17T00:00:34.225Z,98599.19
2022-12-17T00:11:40.202Z,98617.75
2022-12-17T00:14:27.622Z,98611.28
2022-12-17T00:17:14.489Z,98628.06
2022-12-17T00:19:44.842Z,98626.25
2022-12-17T00:22:32.500Z,98639.09
2022-12-17T00:25:19.497Z,98637.69
2022-12-17T00:28:05.595Z,98647.16
2022-12-17T00:30:52.009Z,98649.53
2022-12-17T00:33:38.953Z,98658.13
2022-12-17T00:36:26.133Z,98666.97
2022-12-17T00:39:14.304Z,98657.50
2022-12-17T00:42:00.422Z,98658.25
2022-12-17T00:44:46.217Z,98647.59
2022-12-17T00:47:32.262Z,98651.97
2022-12-17T00:50:18.493Z,98649.06
2022-12-17T00:53:04.234Z,98656.69
2022-12-17T00:55:50.702Z,98662.28
2022-12-17T00:58:36.617Z,98642.13
2022-12-17T01:01:22.896Z,98649.69
2022-12-17T01:04:09.029Z,98630.38
2022-12-17T01:06:55.765Z,98626.63
2022-12-17T01:09:42.761Z,98621.03
2022-12-17T01:12:28.701Z,98614.03
2022-12-17T01:15:15.067Z,98613.47
2022-12-17T01:18:00.886Z,98611.25
2022-12-17T01:20:47.079Z,98616.38
2022-12-17T01:23:34.649Z,98623.78
2022-12-17T01:26:20.632Z,98595.88
2022-12-17T01:29:06.765Z,98588.97
2022-12-17T01:31:53.165Z,98590.25
2022-12-17T01:34:39.145Z,98571.44
2022-12-17T01:37:24.853Z,98587.75
2022-12-17T01:40:10.701Z,98586.16
2022-12-17T01:43:03.486Z,98577.44
2022-12-17T01:46:02.925Z,98584.09
2022-12-17T01:49:00.618Z,98581.69
2022-12-17T01:51:48.815Z,98572.38
2022-12-17T01:54:36.402Z,98563.19
2022-12-17T01:57:25.399Z,98560.75
2022-12-17T02:00:25.878Z,98565.13
2022-12-17T02:03:12.126Z,98604.72
2022-12-17T02:06:15.483Z,98618.72
2022-12-17T02:09:24.767Z,98637.88
2022-12-17T02:12:31.409Z,98658.31
2022-12-17T02:15:31.736Z,98665.19
2022-12-17T02:18:23.949Z,98691.56
2022-12-17T02:21:13.079Z,98703.72
2022-12-17T02:24:49.693Z,98723.91
2022-12-17T02:27:37.848Z,98739.38
2022-12-17T02:30:27.855Z,98719.47
2022-12-17T02:33:14.970Z,98732.16
2022-12-17T02:36:06.269Z,98714.84
2022-12-17T02:38:52.352Z,98721.50
2022-12-17T02:42:00.268Z,98727.72
2022-12-17T02:44:49.421Z,98752.56
2022-12-17T02:47:37.641Z,98766.91
2022-12-17T02:50:24.252Z,98771.16
2022-12-17T02:53:10.791Z,98773.31
2022-12-17T02:55:56.833Z,98764.41
2022-12-17T02:58:42.903Z,98741.34
2022-12-17T03:01:29.504Z,98725.69
2022-12-17T03:04:15.347Z,98733.38
2022-12-17T03:07:01.181Z,98719.66
2022-12-17T03:09:47.475Z,98719.09
2022-12-17T03:12:33.252Z,98703.06
2022-12-17T03:15:18.948Z,98708.06
2022-12-17T03:18:05.116Z,98708.28
2022-12-17T03:20:50.821Z,98698.75
2022-12-17T03:23:36.910Z,98708.72
2022-12-17T03:26:23.826Z,98733.94
2022-12-17T03:29:09.956Z,98729.47
2022-12-17T03:31:55.808Z,98730.50
2022-12-17T03:34:42.397Z,98746.34
2022-12-17T03:37:28.242Z,98745.59
2022-12-17T03:40:14.176Z,98760.50
2022-12-17T03:42:59.851Z,98756.66
2022-12-17T03:45:47.168Z,98770.34
2022-12-17T03:48:35.072Z,98774.16
2022-12-17T03:51:21.597Z,98790.44
2022-12-17T03:54:07.815Z,98793.41
2022-12-17T03:56:53.695Z,98784.97
2022-12-17T03:59:43.914Z,98773.69
2022-12-17T04:02:29.992Z,98775.34
2022-12-17T04:05:20.069Z,98765.78
2022-12-17T04:08:07.384Z,98748.09
2022-12-17T04:10:54.025Z,98739.56
2022-12-17T04:13:41.527Z,98735.03
2022-12-17T04:16:31.085Z,98728.66
2022-12-17T04:19:17.476Z,98757.72
2022-12-17T04:22:03.501Z,98788.31
2022-12-17T04:24:49.613Z,98796.28
2022-12-17T04:27:35.824Z,98816.84
2022-12-17T04:30:22.030Z,98812.19
2022-12-17T04:33:08.327Z,98827.22
2022-12-17T04:35:54.429Z,98828.97
2022-12-17T04:38:40.312Z,98840.66
2022-12-17T04:41:26.151Z,98834.53
2022-12-17T04:44:11.818Z,98829.97
2022-12-17T04:46:57.580Z,98817.50
2022-12-17T04:49:43.396Z,98821.78
2022-12-17T04:52:29.363Z,98818.16
2022-12-17T04:55:15.032Z,98816.03
2022-12-17T04:58:01.014Z,98806.00
2022-12-17T05:00:47.113Z,98812.19
2022-12-17T05:03:35.452Z,98816.72
2022-12-17T05:06:23.237Z,98832.97
2022-12-17T05:09:08.992Z,98816.78
2022-12-17T05:11:54.847Z,98814.16
2022-12-17T05:14:40.604Z,98813.81
2022-12-17T05:17:26.374Z,98825.56
2022-12-17T05:20:12.065Z,98861.91
2022-12-17T05:22:57.956Z,98864.69
2022-12-17T05:25:43.782Z,98864.88
2022-12-17T05:28:29.860Z,98865.28
2022-12-17T05:31:16.063Z,98880.28
2022-12-17T05:34:02.273Z,98879.53
2022-12-17T05:36:48.148Z,98885.34
2022-12-17T05:39:47.722Z,98914.69
2022-12-17T05:42:33.710Z,98927.25
2022-12-17T05:45:19.278Z,98925.56
2022-12-17T05:48:05.422Z,98926.00
2022-12-17T05:50:51.291Z,98928.00
2022-12-17T05:53:37.710Z,98933.16
2022-12-17T05:56:24.660Z,98936.00
2022-12-17T05:59:10.655Z,98938.78
2022-12-17T06:01:56.668Z,98955.75
2022-12-17T06:04:42.580Z,98962.97
2022-12-17T06:07:28.283Z,98965.56
2022-12-17T06:10:14.114Z,98988.25
2022-12-17T06:13:00.064Z,98988.81
2022-12-17T06:15:46.303Z,98986.38
2022-12-17T06:21:34.508Z,99005.72
2022-12-17T06:24:20.397Z,99005.56
2022-12-17T06:27:06.283Z,99005.28
2022-12-17T06:29:51.903Z,99012.38
2022-12-17T06:32:37.674Z,99006.03
2022-12-17T06:35:24.190Z,99004.16
2022-12-17T06:38:26.013Z,98999.06
2022-12-17T06:41:12.360Z,99003.91
2022-12-17T06:43:58.113Z,98998.22
2022-12-17T06:46:44.417Z,99007.81
2022-12-17T06:49:30.696Z,99020.59
2022-12-17T06:52:16.455Z,99041.03
2022-12-17T06:55:02.586Z,99033.00
2022-12-17T07:00:16.310Z,99035.91
2022-12-17T07:38:16.799Z,99107.63
2022-12-17T07:41:49.457Z,99105.75
2022-12-17T07:44:37.445Z,99113.44
2022-12-17T08:53:17.595Z,99231.47
2022-12-17T09:12:09.549Z,99226.19
2022-12-17T15:38:45.444Z,99782.06
2022-12-17T15:41:33.350Z,99776.34
2022-12-17T15:44:03.157Z,99782.69
2022-12-17T15:46:33.735Z,99780.88
2022-12-17T15:49:03.293Z,99777.16
2022-12-17T15:51:35.860Z,99782.22
2022-12-17T15:54:09.843Z,99789.44
2022-12-17T15:59:23.333Z,99788.44
2022-12-17T16:01:59.025Z,99791.59
2022-12-17T16:04:31.390Z,99789.06
2022-12-17T16:07:02.306Z,99791.75
2022-12-17T16:09:33.186Z,99787.19
2022-12-17T16:12:05.782Z,99791.06
2022-12-17T16:14:33.400Z,99801.66
2022-12-17T16:17:01.176Z,99802.50
2022-12-17T16:19:31.318Z,99792.22
2022-12-17T16:22:08.394Z,99802.66
2022-12-17T16:24:36.179Z,99801.13
2022-12-17T16:27:10.590Z,99816.78
2022-12-17T16:29:45.194Z,99827.22
2022-12-17T16:32:13.362Z,99824.38
2022-12-17T16:34:43.212Z,99825.00
2022-12-17T16:37:11.635Z,99837.81
2022-12-17T16:39:39.258Z,99837.28
2022-12-17T16:42:07.416Z,99843.50
2022-12-17T16:44:35.086Z,99843.97
2022-12-17T16:47:04.283Z,99862.47
2022-12-17T16:49:33.482Z,99861.25
2022-12-17T16:52:02.390Z,99870.00
2022-12-17T16:54:32.860Z,99870.16
2022-12-17T16:57:02.045Z,99874.28
2022-12-17T16:59:29.915Z,99880.31
2022-12-17T17:01:57.793Z,99878.75
2022-12-17T17:04:25.760Z,99881.28
2022-12-17T17:06:58.026Z,99881.75
2022-12-17T17:09:26.436Z,99885.06
2022-12-17T17:11:57.294Z,99880.00
2022-12-17T17:14:25.315Z,99902.19
2022-12-17T17:16:53.612Z,99900.09
2022-12-17T17:19:21.032Z,99896.88
2022-12-17T17:21:54.538Z,99904.09
2022-12-17T17:24:25.581Z,99906.25
2022-12-17T17:26:55.131Z,99906.25
2022-12-17T17:29:23.199Z,99907.31
2022-12-17T17:32:09.944Z,99913.81
2022-12-17T17:34:39.455Z,99915.13
2022-12-17T17:37:07.508Z,99925.00
2022-12-17T17:39:34.969Z,99926.63
2022-12-17T17:42:02.832Z,99932.69
2022-12-17T17:44:30.409Z,99934.00
2022-12-17T17:46:58.058Z,99927.06
2022-12-17T17:49:25.873Z,99940.94
2022-12-17T17:52:09.557Z,99943.94
2022-12-17T17:54:39.763Z,99962.13
2022-12-17T17:57:07.828Z,99952.25
2022-12-17T17:59:35.091Z,99959.84
2022-12-17T18:02:03.624Z,99957.03
2022-12-17T18:04:31.653Z,99963.06
2022-12-17T18:09:46.731Z,99967.44
2022-12-17T18:12:32.515Z,99962.09
2022-12-17T18:15:16.822Z,99966.94
2022-12-17T18:17:51.557Z,99967.06
2022-12-17T18:20:23.157Z,99972.34
2022-12-17T18:22:51.493Z,99979.94
2022-12-17T18:25:19.255Z,99987.00
2022-12-17T18:27:46.911Z,99990.00
2022-12-17T18:30:16.548Z,99983.78
2022-12-17T18:32:43.988Z,99985.06
2022-12-17T18:35:11.634Z,99993.56
2022-12-17T18:37:42.383Z,99994.59
2022-12-17T18:40:10.669Z,100005.03
2022-12-17T18:42:56.747Z,100008.13
2022-12-17T18:45:24.367Z,100010.81
2022-12-17T18:47:52.064Z,100022.53
2022-12-17T18:50:19.792Z,100020.00
2022-12-17T18:52:47.764Z,100019.72
2022-12-17T18:55:15.682Z,100020.69
2022-12-17T18:57:43.380Z,100028.47
2022-12-17T19:00:12.117Z,100028.06
2022-12-17T19:02:39.956Z,100029.75
2022-12-17T19:05:08.227Z,100041.75
2022-12-17T19:07:36.105Z,100043.44
2022-12-17T19:10:04.629Z,100050.75
2022-12-17T19:12:32.239Z,100041.19
2022-12-17T19:15:02.736Z,100044.88
2022-12-17T19:17:30.274Z,100054.44
2022-12-17T19:19:57.874Z,100056.53
2022-12-17T19:22:25.519Z,100053.59
2022-12-17T19:24:53.656Z,100057.09
2022-12-17T19:27:21.461Z,100062.19
2022-12-17T19:29:49.966Z,100061.72
2022-12-17T19:32:18.252Z,100069.19
2022-12-17T19:34:49.197Z,100071.44
2022-12-17T19:37:17.881Z,100074.97
2022-12-17T19:39:46.043Z,100072.28
2022-12-17T19:42:25.072Z,100076.47
2022-12-17T19:44:57.215Z,100082.22
2022-12-17T19:47:26.138Z,100087.88
2022-12-17T19:49:53.943Z,100107.56
2022-12-17T19:52:21.733Z,100091.94
2022-12-17T19:54:50.705Z,100105.13
2022-12-17T19:57:18.099Z,100098.56
2022-12-17T19:59:45.864Z,100096.94
2022-12-17T20:02:13.524Z,100119.69
2022-12-17T20:04:42.258Z,100122.06
2022-12-17T20:07:09.645Z,100125.72
2022-12-17T20:09:40.641Z,100132.66
2022-12-17T20:12:10.083Z,100138.00
2022-12-17T20:14:39.147Z,100139.97
2022-12-17T20:17:07.996Z,100148.16
2022-12-17T20:19:35.814Z,100145.47
2022-12-17T20:22:06.434Z,100141.34
2022-12-17T20:24:34.218Z,100150.59
2022-12-17T20:27:01.965Z,100153.28
2022-12-17T20:29:30.729Z,100164.84
2022-12-17T20:31:58.910Z,100169.88
2022-12-17T20:34:30.173Z,100177.63
2022-12-17T20:36:58.116Z,100179.03
2022-12-17T20:39:28.575Z,100172.75
2022-12-17T20:41:57.553Z,100171.78
2022-12-17T20:44:25.595Z,100188.44
2022-12-17T20:46:53.701Z,100184.13
2022-12-17T20:49:23.744Z,100191.31
2022-12-17T20:51:51.481Z,100191.56
2022-12-17T20:54:19.292Z,100185.41
2022-12-17T20:56:47.317Z,100193.91
2022-12-17T20:59:18.599Z,100198.16
2022-12-17T21:01:52.835Z,100199.72
2022-12-17T21:04:25.407Z,100208.59
2022-12-17T21:06:59.418Z,100211.38
2022-12-17T21:09:30.685Z,100223.78
2022-12-17T21:12:00.119Z,100222.06
2022-12-17T21:14:35.136Z,100217.47
2022-12-17T21:17:05.295Z,100217.38
2022-12-17T21:19:33.506Z,100229.63
2022-12-17T21:22:02.191Z,100230.00
2022-12-17T21:24:31.379Z,100224.94
2022-12-17T21:27:02.937Z,100231.50
2022-12-17T21:29:30.968Z,100227.66
2022-12-17T21:31:58.770Z,100235.09
2022-12-17T21:34:29.437Z,100249.38
2022-12-17T21:36:58.177Z,100237.78
2022-12-17T21:39:26.487Z,100251.25
2022-12-17T21:42:15.767Z,100242.38
2022-12-17T21:44:43.419Z,100257.28
2022-12-17T21:47:11.763Z,100269.06
2022-12-17T21:49:40.800Z,100266.59
2022-12-17T21:52:09.854Z,100267.44
2022-12-17T21:54:40.196Z,100270.97
2022-12-17T21:57:08.703Z,100283.38
2022-12-17T21:59:37.131Z,100286.75
2022-12-17T22:02:05.174Z,100295.50
2022-12-17T22:04:32.963Z,100282.53
2022-12-17T22:07:08.907Z,100282.63
2022-12-17T22:10:08.152Z,100285.31
2022-12-17T22:12:50.914Z,100284.97
2022-12-17T22:15:18.477Z,100304.16
2022-12-17T22:17:46.642Z,100303.69
2022-12-17T22:20:16.451Z,100300.78
2022-12-17T22:22:45.227Z,100293.84
2022-12-17T22:25:13.822Z,100301.00
2022-12-17T22:27:42.380Z,100301.00
2022-12-17T22:30:35.534Z,100300.19
2022-12-17T22:33:21.815Z,100303.34
2022-12-17T22:37:45.421Z,100311.09
2022-12-17T22:42:57.225Z,100307.97
2022-12-17T22:44:35.212Z,100313.78
2022-12-17T22:44:51.548Z,100318.53
2022-12-17T22:47:21.020Z,100315.13
2022-12-17T22:49:48.942Z,100320.72
2022-12-17T22:52:17.897Z,100316.34
2022-12-17T22:54:47.418Z,100324.13
2022-12-17T22:57:36.364Z,100328.34
2022-12-17T23:00:02.750Z,100319.38
2022-12-17T23:02:30.483Z,100317.06
2022-12-17T23:04:58.172Z,100326.53
2022-12-17T23:07:31.589Z,100325.22
2022-12-17T23:09:59.783Z,100327.72
2022-12-17T23:12:46.010Z,100339.91
2022-12-17T23:15:16.009Z,100345.09
2022-12-17T23:17:44.105Z,100343.41
2022-12-17T23:20:12.355Z,100351.41
2022-12-17T23:22:40.180Z,100358.72
2022-12-17T23:25:09.325Z,100362.94
2022-12-17T23:27:37.599Z,100364.50
2022-12-17T23:30:07.681Z,100367.53
2022-12-17T23:32:37.740Z,100372.41
2022-12-17T23:35:06.140Z,100377.38
2022-12-17T23:37:38.147Z,100378.47
2022-12-17T23:40:12.148Z,100381.63
2022-12-17T23:42:40.683Z,100385.13
2022-12-17T23:45:11.706Z,100394.97
2022-12-17T23:47:41.140Z,100391.81
2022-12-17T23:50:11.665Z,100400.06
2022-12-17T23:52:40.202Z,100397.25
2022-12-17T23:55:08.826Z,100404.06
2022-12-17T23:57:36.556Z,100403.88
